sensor_id;sensor_type;location;lat;lon;timestamp;pressure;altitude;pressure_sealevel;temperature;humidity
63700;BME280;49845;47.130;142.766;2023-07-29T00:00:30;100026.22;;;25.64;97.20
63700;BME280;49845;47.130;142.766;2023-07-29T00:03:01;100025.94;;;25.67;96.09
63700;BME280;49845;47.130;142.766;2023-07-29T00:05:31;100032.50;;;25.74;95.35
63700;BME280;49845;47.130;142.766;2023-07-29T00:08:02;100030.03;;;25.82;94.60
63700;BME280;49845;47.130;142.766;2023-07-29T00:10:36;100029.03;;;25.95;94.40
63700;BME280;49845;47.130;142.766;2023-07-29T00:13:07;100014.06;;;25.92;93.32
63700;BME280;49845;47.130;142.766;2023-07-29T00:15:38;100027.97;;;26.07;93.81
63700;BME280;49845;47.130;142.766;2023-07-29T00:18:08;100030.56;;;26.18;94.25
63700;BME280;49845;47.130;142.766;2023-07-29T00:20:39;100025.88;;;26.32;92.87
63700;BME280;49845;47.130;142.766;2023-07-29T00:23:10;100029.03;;;26.37;91.37
63700;BME280;49845;47.130;142.766;2023-07-29T00:25:42;100031.88;;;26.45;90.27
63700;BME280;49845;47.130;142.766;2023-07-29T00:28:13;100021.47;;;26.52;90.68
63700;BME280;49845;47.130;142.766;2023-07-29T00:30:45;100026.94;;;26.61;90.52
63700;BME280;49845;47.130;142.766;2023-07-29T00:33:15;100013.25;;;26.64;90.23
63700;BME280;49845;47.130;142.766;2023-07-29T00:35:46;100022.75;;;26.78;89.90
63700;BME280;49845;47.130;142.766;2023-07-29T00:38:17;100001.91;;;26.82;88.70
63700;BME280;49845;47.130;142.766;2023-07-29T00:40:49;100011.53;;;26.94;89.24
63700;BME280;49845;47.130;142.766;2023-07-29T00:43:21;100018.88;;;27.02;87.86
63700;BME280;49845;47.130;142.766;2023-07-29T00:45:52;100018.31;;;27.08;87.81
63700;BME280;49845;47.130;142.766;2023-07-29T00:48:22;100026.81;;;27.03;86.69
63700;BME280;49845;47.130;142.766;2023-07-29T00:50:54;100017.75;;;27.04;86.86
63700;BME280;49845;47.130;142.766;2023-07-29T00:53:25;100021.97;;;26.97;86.47
63700;BME280;49845;47.130;142.766;2023-07-29T00:55:57;100023.34;;;26.82;87.00
63700;BME280;49845;47.130;142.766;2023-07-29T00:58:28;100017.38;;;26.78;87.55
63700;BME280;49845;47.130;142.766;2023-07-29T01:00:59;100011.19;;;26.78;87.09
63700;BME280;49845;47.130;142.766;2023-07-29T01:03:29;100010.03;;;26.71;87.51
63700;BME280;49845;47.130;142.766;2023-07-29T01:06:12;100003.53;;;26.63;88.05
63700;BME280;49845;47.130;142.766;2023-07-29T01:08:49;100002.38;;;26.56;88.14
63700;BME280;49845;47.130;142.766;2023-07-29T01:11:33;100015.50;;;26.59;88.25
63700;BME280;49845;47.130;142.766;2023-07-29T01:14:21;100013.09;;;26.56;89.12
63700;BME280;49845;47.130;142.766;2023-07-29T01:17:00;100005.69;;;26.49;89.22
63700;BME280;49845;47.130;142.766;2023-07-29T01:19:48;100012.41;;;26.43;90.63
63700;BME280;49845;47.130;142.766;2023-07-29T01:22:21;99975.94;;;26.21;90.06
63700;BME280;49845;47.130;142.766;2023-07-29T01:24:56;100005.03;;;26.35;90.18
63700;BME280;49845;47.130;142.766;2023-07-29T01:27:26;99993.75;;;26.32;90.43
63700;BME280;49845;47.130;142.766;2023-07-29T01:29:57;99997.84;;;26.36;90.86
63700;BME280;49845;47.130;142.766;2023-07-29T01:32:35;99989.28;;;26.42;91.42
63700;BME280;49845;47.130;142.766;2023-07-29T01:35:15;99982.81;;;26.44;90.41
63700;BME280;49845;47.130;142.766;2023-07-29T01:37:53;99978.25;;;26.35;90.08
63700;BME280;49845;47.130;142.766;2023-07-29T01:40:27;99975.06;;;26.20;90.47
63700;BME280;49845;47.130;142.766;2023-07-29T01:42:58;99981.53;;;26.18;91.57
63700;BME280;49845;47.130;142.766;2023-07-29T01:45:29;99983.66;;;26.14;91.54
63700;BME280;49845;47.130;142.766;2023-07-29T01:48:05;99977.91;;;26.19;92.63
63700;BME280;49845;47.130;142.766;2023-07-29T01:50:35;99978.47;;;26.22;92.27
63700;BME280;49845;47.130;142.766;2023-07-29T01:53:06;99969.75;;;26.30;91.91
63700;BME280;49845;47.130;142.766;2023-07-29T01:55:39;99949.22;;;26.40;92.10
63700;BME280;49845;47.130;142.766;2023-07-29T01:58:10;99958.22;;;26.60;90.67
63700;BME280;49845;47.130;142.766;2023-07-29T02:00:40;99948.81;;;26.76;89.34
63700;BME280;49845;47.130;142.766;2023-07-29T02:03:11;99953.09;;;26.98;88.40
63700;BME280;49845;47.130;142.766;2023-07-29T02:05:41;99956.56;;;27.29;88.25
63700;BME280;49845;47.130;142.766;2023-07-29T02:08:12;99939.06;;;27.64;86.07
63700;BME280;49845;47.130;142.766;2023-07-29T02:10:44;99945.28;;;27.93;84.49
63700;BME280;49845;47.130;142.766;2023-07-29T02:13:17;99949.69;;;28.22;83.34
63700;BME280;49845;47.130;142.766;2023-07-29T02:15:47;99948.53;;;28.34;81.73
63700;BME280;49845;47.130;142.766;2023-07-29T02:18:18;99953.97;;;28.62;81.96
63700;BME280;49845;47.130;142.766;2023-07-29T02:20:48;99945.28;;;28.96;80.98
63700;BME280;49845;47.130;142.766;2023-07-29T02:23:19;99946.41;;;29.21;78.86
63700;BME280;49845;47.130;142.766;2023-07-29T02:25:52;99939.41;;;29.10;77.76
63700;BME280;49845;47.130;142.766;2023-07-29T02:28:22;99940.56;;;28.98;77.36
63700;BME280;49845;47.130;142.766;2023-07-29T02:31:14;99948.41;;;28.73;77.55
63700;BME280;49845;47.130;142.766;2023-07-29T02:33:44;99946.91;;;28.61;78.37
63700;BME280;49845;47.130;142.766;2023-07-29T02:36:15;99935.75;;;28.56;79.29
63700;BME280;49845;47.130;142.766;2023-07-29T02:38:46;99928.97;;;28.52;79.60
63700;BME280;49845;47.130;142.766;2023-07-29T02:41:18;99932.06;;;28.57;79.50
63700;BME280;49845;47.130;142.766;2023-07-29T02:43:49;99914.00;;;28.39;78.95
63700;BME280;49845;47.130;142.766;2023-07-29T02:46:20;99928.97;;;28.52;79.46
63700;BME280;49845;47.130;142.766;2023-07-29T02:48:50;99918.91;;;28.54;79.34
63700;BME280;49845;47.130;142.766;2023-07-29T02:51:21;99925.28;;;28.53;79.30
63700;BME280;49845;47.130;142.766;2023-07-29T02:53:52;99917.50;;;28.50;79.67
63700;BME280;49845;47.130;142.766;2023-07-29T02:56:25;99929.56;;;28.46;79.63
63700;BME280;49845;47.130;142.766;2023-07-29T02:58:55;99928.19;;;28.32;79.29
63700;BME280;49845;47.130;142.766;2023-07-29T03:01:28;99928.66;;;28.08;79.32
63700;BME280;49845;47.130;142.766;2023-07-29T03:04:02;99933.94;;;27.80;81.00
63700;BME280;49845;47.130;142.766;2023-07-29T03:06:33;99942.47;;;27.66;81.69
63700;BME280;49845;47.130;142.766;2023-07-29T03:09:04;99931.97;;;27.63;82.51
63700;BME280;49845;47.130;142.766;2023-07-29T03:11:36;99941.91;;;27.82;82.85
63700;BME280;49845;47.130;142.766;2023-07-29T03:14:06;99944.13;;;28.06;82.27
63700;BME280;49845;47.130;142.766;2023-07-29T03:16:37;99933.00;;;28.28;82.21
63700;BME280;49845;47.130;142.766;2023-07-29T03:19:07;99935.19;;;28.43;80.73
63700;BME280;49845;47.130;142.766;2023-07-29T03:21:39;99926.03;;;28.45;80.05
63700;BME280;49845;47.130;142.766;2023-07-29T03:24:09;99934.69;;;28.29;80.26
63700;BME280;49845;47.130;142.766;2023-07-29T03:26:42;99936.56;;;28.19;80.40
63700;BME280;49845;47.130;142.766;2023-07-29T03:29:13;99931.22;;;28.09;79.89
63700;BME280;49845;47.130;142.766;2023-07-29T03:31:43;99921.50;;;28.08;81.04
63700;BME280;49845;47.130;142.766;2023-07-29T03:34:14;99926.00;;;28.08;81.29
63700;BME280;49845;47.130;142.766;2023-07-29T03:36:45;99922.03;;;28.12;81.18
63700;BME280;49845;47.130;142.766;2023-07-29T03:39:16;99924.81;;;28.20;81.06
63700;BME280;49845;47.130;142.766;2023-07-29T03:41:48;99925.13;;;28.17;81.55
63700;BME280;49845;47.130;142.766;2023-07-29T03:44:19;99937.59;;;28.08;81.28
63700;BME280;49845;47.130;142.766;2023-07-29T03:46:49;99934.53;;;27.93;82.25
63700;BME280;49845;47.130;142.766;2023-07-29T03:49:20;99932.25;;;27.79;82.78
63700;BME280;49845;47.130;142.766;2023-07-29T03:51:50;99924.94;;;27.62;83.28
63700;BME280;49845;47.130;142.766;2023-07-29T03:54:21;99919.44;;;27.53;83.65
63700;BME280;49845;47.130;142.766;2023-07-29T03:56:53;99915.94;;;27.43;84.47
63700;BME280;49845;47.130;142.766;2023-07-29T03:59:24;99921.28;;;27.43;84.42
63700;BME280;49845;47.130;142.766;2023-07-29T04:01:54;99919.28;;;27.45;84.52
63700;BME280;49845;47.130;142.766;2023-07-29T04:04:25;99918.59;;;27.43;85.00
63700;BME280;49845;47.130;142.766;2023-07-29T04:06:56;99922.13;;;27.44;85.29
63700;BME280;49845;47.130;142.766;2023-07-29T04:09:26;99915.75;;;27.35;85.55
63700;BME280;49845;47.130;142.766;2023-07-29T04:11:58;99917.31;;;27.28;85.78
63700;BME280;49845;47.130;142.766;2023-07-29T04:14:29;99915.03;;;27.14;86.22
63700;BME280;49845;47.130;142.766;2023-07-29T04:17:01;99919.25;;;27.06;87.10
63700;BME280;49845;47.130;142.766;2023-07-29T04:19:32;99913.31;;;27.03;88.07
63700;BME280;49845;47.130;142.766;2023-07-29T04:22:02;99907.09;;;26.93;87.91
63700;BME280;49845;47.130;142.766;2023-07-29T04:24:34;99905.69;;;26.79;88.74
63700;BME280;49845;47.130;142.766;2023-07-29T04:27:08;99909.31;;;26.78;89.16
63700;BME280;49845;47.130;142.766;2023-07-29T04:29:38;99915.41;;;26.80;89.08
63700;BME280;49845;47.130;142.766;2023-07-29T04:32:09;99910.63;;;26.12;78.51
63700;BME280;49845;47.130;142.766;2023-07-29T04:34:39;99929.97;;;25.09;81.78
63700;BME280;49845;47.130;142.766;2023-07-29T04:37:10;99929.31;;;24.73;85.15
63700;BME280;49845;47.130;142.766;2023-07-29T04:39:40;99933.19;;;24.92;87.24
63700;BME280;49845;47.130;142.766;2023-07-29T04:42:13;99935.03;;;24.58;82.80
63700;BME280;49845;47.130;142.766;2023-07-29T04:44:43;99933.06;;;24.03;83.94
63700;BME280;49845;47.130;142.766;2023-07-29T04:47:14;99938.25;;;23.58;84.59
63700;BME280;49845;47.130;142.766;2023-07-29T04:49:44;99903.03;;;23.07;86.52
63700;BME280;49845;47.130;142.766;2023-07-29T04:52:15;99928.09;;;23.04;88.05
63700;BME280;49845;47.130;142.766;2023-07-29T04:54:48;99921.81;;;23.05;88.42
63700;BME280;49845;47.130;142.766;2023-07-29T04:57:20;99929.16;;;22.89;88.66
63700;BME280;49845;47.130;142.766;2023-07-29T04:59:51;99934.88;;;22.71;90.03
63700;BME280;49845;47.130;142.766;2023-07-29T05:02:22;99938.28;;;22.73;90.90
63700;BME280;49845;47.130;142.766;2023-07-29T05:04:53;99941.03;;;22.85;91.38
63700;BME280;49845;47.130;142.766;2023-07-29T05:07:23;99943.75;;;22.96;89.90
63700;BME280;49845;47.130;142.766;2023-07-29T05:09:54;99943.47;;;22.88;90.55
63700;BME280;49845;47.130;142.766;2023-07-29T05:12:26;99905.38;;;22.74;89.53
63700;BME280;49845;47.130;142.766;2023-07-29T05:14:57;99943.38;;;22.76;89.06
63700;BME280;49845;47.130;142.766;2023-07-29T05:17:28;99943.41;;;22.64;90.25
63700;BME280;49845;47.130;142.766;2023-07-29T05:19:59;99954.53;;;22.45;89.35
63700;BME280;49845;47.130;142.766;2023-07-29T05:22:29;99951.34;;;22.39;90.97
63700;BME280;49845;47.130;142.766;2023-07-29T05:25:00;99952.63;;;22.34;90.40
63700;BME280;49845;47.130;142.766;2023-07-29T05:27:32;99960.94;;;22.29;91.12
63700;BME280;49845;47.130;142.766;2023-07-29T05:30:03;99953.03;;;22.15;90.40
63700;BME280;49845;47.130;142.766;2023-07-29T05:32:35;99950.16;;;22.05;91.35
63700;BME280;49845;47.130;142.766;2023-07-29T05:35:06;99940.34;;;22.06;91.74
63700;BME280;49845;47.130;142.766;2023-07-29T05:37:39;99938.75;;;22.16;91.74
63700;BME280;49845;47.130;142.766;2023-07-29T05:40:10;99934.53;;;22.26;91.51
63700;BME280;49845;47.130;142.766;2023-07-29T05:42:42;99928.34;;;22.38;92.29
63700;BME280;49845;47.130;142.766;2023-07-29T05:45:13;99922.59;;;22.45;90.83
63700;BME280;49845;47.130;142.766;2023-07-29T05:47:44;99918.31;;;22.55;91.17
63700;BME280;49845;47.130;142.766;2023-07-29T05:50:16;99919.97;;;22.81;91.44
63700;BME280;49845;47.130;142.766;2023-07-29T05:52:46;99919.88;;;23.07;89.86
63700;BME280;49845;47.130;142.766;2023-07-29T05:55:17;99913.84;;;23.16;89.02
63700;BME280;49845;47.130;142.766;2023-07-29T05:57:49;99911.00;;;23.31;89.19
63700;BME280;49845;47.130;142.766;2023-07-29T06:00:20;99906.97;;;23.49;89.01
63700;BME280;49845;47.130;142.766;2023-07-29T06:02:50;99894.22;;;23.88;88.95
63700;BME280;49845;47.130;142.766;2023-07-29T06:05:21;99895.72;;;24.15;88.14
63700;BME280;49845;47.130;142.766;2023-07-29T06:07:52;99890.13;;;24.18;86.89
63700;BME280;49845;47.130;142.766;2023-07-29T06:10:22;99886.47;;;24.19;87.91
63700;BME280;49845;47.130;142.766;2023-07-29T06:12:54;99884.78;;;24.29;88.41
63700;BME280;49845;47.130;142.766;2023-07-29T06:15:25;99862.22;;;24.22;86.25
63700;BME280;49845;47.130;142.766;2023-07-29T06:17:56;99808.84;;;23.88;87.32
63700;BME280;49845;47.130;142.766;2023-07-29T06:20:27;99885.03;;;24.37;87.79
63700;BME280;49845;47.130;142.766;2023-07-29T06:22:57;99885.88;;;24.38;86.59
63700;BME280;49845;47.130;142.766;2023-07-29T06:25:28;99879.69;;;24.37;86.79
63700;BME280;49845;47.130;142.766;2023-07-29T06:28:00;99876.78;;;24.51;87.15
63700;BME280;49845;47.130;142.766;2023-07-29T06:30:31;99879.56;;;24.50;86.83
63700;BME280;49845;47.130;142.766;2023-07-29T06:33:01;99860.50;;;24.21;86.58
63700;BME280;49845;47.130;142.766;2023-07-29T06:35:32;99897.16;;;24.30;86.92
63700;BME280;49845;47.130;142.766;2023-07-29T06:38:03;99878.25;;;24.22;88.13
63700;BME280;49845;47.130;142.766;2023-07-29T06:40:33;99895.47;;;24.29;87.87
63700;BME280;49845;47.130;142.766;2023-07-29T06:43:05;99878.22;;;24.33;88.37
63700;BME280;49845;47.130;142.766;2023-07-29T06:45:36;99881.38;;;24.38;87.56
63700;BME280;49845;47.130;142.766;2023-07-29T06:48:07;99887.47;;;24.29;87.38
63700;BME280;49845;47.130;142.766;2023-07-29T06:50:37;99882.22;;;24.16;87.89
63700;BME280;49845;47.130;142.766;2023-07-29T06:53:08;99882.22;;;24.16;88.38
63700;BME280;49845;47.130;142.766;2023-07-29T06:55:39;99875.31;;;24.02;88.68
63700;BME280;49845;47.130;142.766;2023-07-29T06:58:15;99875.31;;;24.02;89.11
63700;BME280;49845;47.130;142.766;2023-07-29T07:00:46;99876.78;;;24.06;89.50
63700;BME280;49845;47.130;142.766;2023-07-29T07:03:16;99879.69;;;24.15;89.41
63700;BME280;49845;47.130;142.766;2023-07-29T07:05:47;99874.22;;;24.27;89.71
63700;BME280;49845;47.130;142.766;2023-07-29T07:08:18;99871.19;;;24.32;88.57
63700;BME280;49845;47.130;142.766;2023-07-29T07:10:48;99818.53;;;24.00;88.48
63700;BME280;49845;47.130;142.766;2023-07-29T07:13:21;99891.34;;;24.47;88.52
63700;BME280;49845;47.130;142.766;2023-07-29T07:15:53;99893.03;;;24.48;89.42
63700;BME280;49845;47.130;142.766;2023-07-29T07:18:24;99892.81;;;24.51;88.77
63700;BME280;49845;47.130;142.766;2023-07-29T07:20:55;99885.50;;;24.53;88.19
63700;BME280;49845;47.130;142.766;2023-07-29T07:23:25;99884.41;;;24.56;88.15
63700;BME280;49845;47.130;142.766;2023-07-29T07:25:56;99888.66;;;24.59;88.48
63700;BME280;49845;47.130;142.766;2023-07-29T07:28:28;99885.72;;;24.73;88.87
63700;BME280;49845;47.130;142.766;2023-07-29T07:30:59;99885.81;;;24.83;88.65
63700;BME280;49845;47.130;142.766;2023-07-29T07:33:30;99890.31;;;24.82;88.58
63700;BME280;49845;47.130;142.766;2023-07-29T07:36:00;99882.94;;;24.74;88.22
63700;BME280;49845;47.130;142.766;2023-07-29T07:38:31;99885.97;;;24.70;89.14
63700;BME280;49845;47.130;142.766;2023-07-29T07:41:02;99893.25;;;24.68;89.78
63700;BME280;49845;47.130;142.766;2023-07-29T07:43:34;99899.69;;;24.65;90.30
63700;BME280;49845;47.130;142.766;2023-07-29T07:46:04;99898.00;;;24.64;90.58
63700;BME280;49845;47.130;142.766;2023-07-29T07:48:35;99887.91;;;24.68;90.73
63700;BME280;49845;47.130;142.766;2023-07-29T07:51:14;99897.38;;;24.72;91.05
63700;BME280;49845;47.130;142.766;2023-07-29T07:53:45;99903.94;;;24.68;91.35
63700;BME280;49845;47.130;142.766;2023-07-29T07:56:15;99908.06;;;24.72;92.12
63700;BME280;49845;47.130;142.766;2023-07-29T07:58:48;99894.72;;;24.72;92.03
63700;BME280;49845;47.130;142.766;2023-07-29T08:01:18;99894.19;;;24.78;92.35
63700;BME280;49845;47.130;142.766;2023-07-29T08:03:49;99884.34;;;24.79;92.10
63700;BME280;49845;47.130;142.766;2023-07-29T08:06:19;99871.63;;;24.71;92.32
63700;BME280;49845;47.130;142.766;2023-07-29T08:08:50;99883.31;;;24.59;92.84
63700;BME280;49845;47.130;142.766;2023-07-29T08:11:20;99882.13;;;24.51;93.92
63700;BME280;49845;47.130;142.766;2023-07-29T08:13:52;99883.81;;;24.52;94.44
63700;BME280;49845;47.130;142.766;2023-07-29T08:16:23;99880.41;;;24.50;95.05
63700;BME280;49845;47.130;142.766;2023-07-29T08:18:53;99843.28;;;24.25;95.50
63700;BME280;49845;47.130;142.766;2023-07-29T08:21:24;99861.72;;;24.39;95.97
63700;BME280;49845;47.130;142.766;2023-07-29T08:23:54;99877.28;;;24.45;96.05
63700;BME280;49845;47.130;142.766;2023-07-29T08:26:25;99875.06;;;24.50;96.49
63700;BME280;49845;47.130;142.766;2023-07-29T08:28:57;99869.25;;;24.57;96.32
63700;BME280;49845;47.130;142.766;2023-07-29T08:31:27;99861.19;;;24.68;96.35
63700;BME280;49845;47.130;142.766;2023-07-29T08:34:00;99867.25;;;24.81;95.81
63700;BME280;49845;47.130;142.766;2023-07-29T08:36:41;99868.41;;;24.88;95.82
63700;BME280;49845;47.130;142.766;2023-07-29T08:39:31;99882.03;;;24.96;95.40
63700;BME280;49845;47.130;142.766;2023-07-29T08:42:04;99867.88;;;25.06;94.86
63700;BME280;49845;47.130;142.766;2023-07-29T08:44:42;99871.47;;;25.16;93.95
63700;BME280;49845;47.130;142.766;2023-07-29T08:47:13;99868.09;;;25.14;93.59
63700;BME280;49845;47.130;142.766;2023-07-29T08:49:44;99873.22;;;25.17;93.59
63700;BME280;49845;47.130;142.766;2023-07-29T08:52:16;99865.41;;;25.25;93.07
63700;BME280;49845;47.130;142.766;2023-07-29T08:54:46;99860.06;;;25.25;92.87
63700;BME280;49845;47.130;142.766;2023-07-29T08:57:17;99859.59;;;25.20;92.97
63700;BME280;49845;47.130;142.766;2023-07-29T08:59:50;99852.75;;;25.16;93.22
63700;BME280;49845;47.130;142.766;2023-07-29T09:02:24;99827.97;;;24.93;93.99
63700;BME280;49845;47.130;142.766;2023-07-29T09:04:59;99852.56;;;25.08;94.76
63700;BME280;49845;47.130;142.766;2023-07-29T09:07:34;99855.50;;;25.05;95.30
63700;BME280;49845;47.130;142.766;2023-07-29T09:10:09;99855.88;;;25.00;95.60
63700;BME280;49845;47.130;142.766;2023-07-29T09:12:41;99852.38;;;24.88;96.13
63700;BME280;49845;47.130;142.766;2023-07-29T09:15:20;99853.16;;;24.79;96.93
63700;BME280;49845;47.130;142.766;2023-07-29T09:17:57;99832.81;;;24.56;97.82
63700;BME280;49845;47.130;142.766;2023-07-29T09:20:38;99852.72;;;24.63;98.63
63700;BME280;49845;47.130;142.766;2023-07-29T09:23:25;99854.91;;;24.58;98.91
63700;BME280;49845;47.130;142.766;2023-07-29T09:26:04;99839.41;;;24.51;99.56
63700;BME280;49845;47.130;142.766;2023-07-29T09:28:41;99806.78;;;24.14;99.79
63700;BME280;49845;47.130;142.766;2023-07-29T09:31:24;99804.25;;;24.01;100.00
63700;BME280;49845;47.130;142.766;2023-07-29T09:34:01;99823.63;;;24.15;100.00
63700;BME280;49845;47.130;142.766;2023-07-29T09:36:35;99853.47;;;24.31;100.00
63700;BME280;49845;47.130;142.766;2023-07-29T09:39:13;99858.78;;;24.31;100.00
63700;BME280;49845;47.130;142.766;2023-07-29T09:42:02;99854.81;;;24.25;100.00
63700;BME280;49845;47.130;142.766;2023-07-29T09:45:28;99867.66;;;24.20;100.00
63700;BME280;49845;47.130;142.766;2023-07-29T09:48:20;99820.75;;;23.84;100.00
63700;BME280;49845;47.130;142.766;2023-07-29T09:51:01;99870.34;;;24.09;100.00
63700;BME280;49845;47.130;142.766;2023-07-29T09:53:54;99865.88;;;24.09;100.00
63700;BME280;49845;47.130;142.766;2023-07-29T09:56:30;99852.28;;;24.01;100.00
63700;BME280;49845;47.130;142.766;2023-07-29T09:59:08;99864.41;;;24.05;100.00
63700;BME280;49845;47.130;142.766;2023-07-29T10:01:56;99870.72;;;24.04;100.00
63700;BME280;49845;47.130;142.766;2023-07-29T10:04:29;99853.00;;;23.92;100.00
63700;BME280;49845;47.130;142.766;2023-07-29T10:07:03;99848.38;;;23.83;100.00
63700;BME280;49845;47.130;142.766;2023-07-29T10:09:37;99852.72;;;23.73;100.00
63700;BME280;49845;47.130;142.766;2023-07-29T10:12:10;99846.38;;;23.62;100.00
63700;BME280;49845;47.130;142.766;2023-07-29T10:14:50;99846.63;;;23.59;100.00
63700;BME280;49845;47.130;142.766;2023-07-29T10:17:25;99841.50;;;23.56;100.00
63700;BME280;49845;47.130;142.766;2023-07-29T10:20:01;99836.41;;;23.53;100.00
63700;BME280;49845;47.130;142.766;2023-07-29T10:22:36;99845.50;;;23.51;100.00
63700;BME280;49845;47.130;142.766;2023-07-29T10:25:21;99786.66;;;23.07;100.00
63700;BME280;49845;47.130;142.766;2023-07-29T10:27:55;99851.03;;;23.36;100.00
63700;BME280;49845;47.130;142.766;2023-07-29T10:30:28;99858.78;;;23.28;100.00
63700;BME280;49845;47.130;142.766;2023-07-29T10:33:02;99879.03;;;23.31;100.00
63700;BME280;49845;47.130;142.766;2023-07-29T10:35:35;99880.94;;;23.29;100.00
63700;BME280;49845;47.130;142.766;2023-07-29T10:38:07;99892.66;;;23.39;100.00
63700;BME280;49845;47.130;142.766;2023-07-29T10:40:46;99796.94;;;22.88;100.00
63700;BME280;49845;47.130;142.766;2023-07-29T10:43:31;99884.75;;;23.37;100.00
63700;BME280;49845;47.130;142.766;2023-07-29T10:46:15;99898.56;;;23.42;100.00
63700;BME280;49845;47.130;142.766;2023-07-29T10:48:57;99908.41;;;23.42;100.00
63700;BME280;49845;47.130;142.766;2023-07-29T10:51:34;99906.91;;;23.38;100.00
63700;BME280;49845;47.130;142.766;2023-07-29T10:54:11;99918.22;;;23.41;100.00
63700;BME280;49845;47.130;142.766;2023-07-29T10:56:48;99916.41;;;23.42;100.00
63700;BME280;49845;47.130;142.766;2023-07-29T10:59:34;99924.41;;;23.42;100.00
63700;BME280;49845;47.130;142.766;2023-07-29T11:02:18;99879.94;;;23.18;100.00
63700;BME280;49845;47.130;142.766;2023-07-29T11:04:51;99866.59;;;23.07;100.00
63700;BME280;49845;47.130;142.766;2023-07-29T11:07:30;99911.00;;;23.31;100.00
63700;BME280;49845;47.130;142.766;2023-07-29T11:10:06;99921.44;;;23.34;100.00
63700;BME280;49845;47.130;142.766;2023-07-29T11:12:38;99908.06;;;23.22;100.00
63700;BME280;49845;47.130;142.766;2023-07-29T11:15:21;99883.75;;;23.03;100.00
63700;BME280;49845;47.130;142.766;2023-07-29T11:17:54;99928.22;;;23.27;100.00
63700;BME280;49845;47.130;142.766;2023-07-29T11:20:29;99935.00;;;23.31;100.00
63700;BME280;49845;47.130;142.766;2023-07-29T11:23:12;99922.88;;;23.27;100.00
63700;BME280;49845;47.130;142.766;2023-07-29T11:25:43;99909.75;;;23.23;100.00
63700;BME280;49845;47.130;142.766;2023-07-29T11:28:14;99903.81;;;23.20;100.00
63700;BME280;49845;47.130;142.766;2023-07-29T11:30:47;99906.59;;;23.18;100.00
63700;BME280;49845;47.130;142.766;2023-07-29T11:33:26;99881.53;;;22.97;100.00
63700;BME280;49845;47.130;142.766;2023-07-29T11:35:58;99908.75;;;23.13;100.00
63700;BME280;49845;47.130;142.766;2023-07-29T11:38:33;99910.69;;;23.11;100.00
63700;BME280;49845;47.130;142.766;2023-07-29T11:41:07;99909.22;;;23.07;100.00
63700;BME280;49845;47.130;142.766;2023-07-29T11:43:38;99909.22;;;23.07;100.00
63700;BME280;49845;47.130;142.766;2023-07-29T11:46:11;99913.31;;;23.00;100.00
63700;BME280;49845;47.130;142.766;2023-07-29T11:48:44;99901.00;;;22.73;100.00
63700;BME280;49845;47.130;142.766;2023-07-29T11:51:15;99909.53;;;22.66;100.00
63700;BME280;49845;47.130;142.766;2023-07-29T11:54:05;99911.28;;;22.54;100.00
63700;BME280;49845;47.130;142.766;2023-07-29T11:56:40;99913.22;;;22.52;100.00
63700;BME280;49845;47.130;142.766;2023-07-29T11:59:25;99918.09;;;22.58;100.00
63700;BME280;49845;47.130;142.766;2023-07-29T12:02:00;99914.38;;;22.48;100.00
63700;BME280;49845;47.130;142.766;2023-07-29T12:04:33;99919.59;;;21.72;100.00
63700;BME280;49845;47.130;142.766;2023-07-29T12:07:05;99896.03;;;21.14;100.00
63700;BME280;49845;47.130;142.766;2023-07-29T12:09:46;99926.81;;;21.03;100.00
63700;BME280;49845;47.130;142.766;2023-07-29T12:13:00;99911.53;;;20.80;100.00
63700;BME280;49845;47.130;142.766;2023-07-29T12:19:34;99914.41;;;20.77;100.00
63700;BME280;49845;47.130;142.766;2023-07-29T12:23:54;99912.88;;;20.73;100.00
63700;BME280;49845;47.130;142.766;2023-07-29T12:30:12;99922.00;;;20.40;100.00
63700;BME280;49845;47.130;142.766;2023-07-29T12:33:34;99923.13;;;20.36;100.00
63700;BME280;49845;47.130;142.766;2023-07-29T12:36:41;99920.69;;;20.33;100.00
63700;BME280;49845;47.130;142.766;2023-07-29T12:39:19;99896.31;;;20.12;100.00
63700;BME280;49845;47.130;142.766;2023-07-29T12:42:26;99940.00;;;20.35;100.00
63700;BME280;49845;47.130;142.766;2023-07-29T12:45:10;99937.72;;;20.29;100.00
63700;BME280;49845;47.130;142.766;2023-07-29T12:47:45;99934.41;;;20.25;100.00
63700;BME280;49845;47.130;142.766;2023-07-29T12:50:16;99934.31;;;20.26;100.00
63700;BME280;49845;47.130;142.766;2023-07-29T12:53:11;99941.31;;;20.13;100.00
63700;BME280;49845;47.130;142.766;2023-07-29T12:55:44;99936.69;;;20.17;100.00
63700;BME280;49845;47.130;142.766;2023-07-29T12:58:16;99933.38;;;20.13;100.00
63700;BME280;49845;47.130;142.766;2023-07-29T13:00:53;99927.09;;;20.14;100.00
63700;BME280;49845;47.130;142.766;2023-07-29T13:03:25;99932.25;;;20.17;100.00
63700;BME280;49845;47.130;142.766;2023-07-29T13:06:19;99932.81;;;20.22;100.00
63700;BME280;49845;47.130;142.766;2023-07-29T13:09:06;99926.75;;;20.20;100.00
63700;BME280;49845;47.130;142.766;2023-07-29T13:11:39;99918.38;;;20.26;100.00
63700;BME280;49845;47.130;142.766;2023-07-29T13:14:28;99925.13;;;20.32;100.00
63700;BME280;49845;47.130;142.766;2023-07-29T13:17:10;99918.94;;;20.32;100.00
63700;BME280;49845;47.130;142.766;2023-07-29T13:19:43;99894.91;;;20.06;100.00